createdAt,value
2019-06-26T00:02:08.527Z,97854.74
2019-06-26T00:05:15.148Z,97853.41
2019-06-26T00:08:21.168Z,97848.33
2019-06-26T00:11:28.386Z,97853.56
2019-06-26T00:14:38.397Z,97853.91
2019-06-26T00:17:42.504Z,97849.98
2019-06-26T00:20:48.773Z,97844.88
2019-06-26T00:23:56.703Z,97851.81
2019-06-26T00:27:02.738Z,97851.69
2019-06-26T00:30:09.574Z,97861.30
2019-06-26T00:33:15.861Z,97855.11
2019-06-26T00:36:21.960Z,97859.52
2019-06-26T00:39:27.982Z,97851.98
2019-06-26T00:42:34.043Z,97846.14
2019-06-26T00:45:40.781Z,97854.08
2019-06-26T00:48:46.835Z,97855.80
2019-06-26T00:51:53.422Z,97851.52
2019-06-26T00:54:59.886Z,97851.19
2019-06-26T00:58:05.901Z,97852.88
2019-06-26T01:01:12.004Z,97854.48
2019-06-26T01:04:22.813Z,97848.28
2019-06-26T01:07:28.863Z,97847.67
2019-06-26T01:10:34.943Z,97855.22
2019-06-26T01:13:40.990Z,97848.73
2019-06-26T01:16:47.018Z,97857.88
2019-06-26T01:19:53.181Z,97853.56
2019-06-26T01:22:59.243Z,97848.91
2019-06-26T01:26:06.239Z,97844.94
2019-06-26T01:29:12.337Z,97848.29
2019-06-26T01:32:18.480Z,97847.33
2019-06-26T01:35:24.706Z,97840.35
2019-06-26T01:38:31.347Z,97839.59
2019-06-26T01:41:37.733Z,97843.34
2019-06-26T01:44:44.107Z,97845.78
2019-06-26T01:47:50.120Z,97847.08
2019-06-26T01:50:56.179Z,97846.13
2019-06-26T01:54:02.673Z,97840.89
2019-06-26T01:57:08.756Z,97845.09
2019-06-26T02:00:17.440Z,97849.75
2019-06-26T02:03:23.555Z,97848.17
2019-06-26T02:06:29.651Z,97846.55
2019-06-26T02:09:37.245Z,97846.56
2019-06-26T02:12:43.311Z,97852.89
2019-06-26T02:15:49.384Z,97850.16
2019-06-26T02:18:59.639Z,97854.35
2019-06-26T02:22:05.977Z,97850.51
2019-06-26T02:25:11.999Z,97852.42
2019-06-26T02:28:18.105Z,97854.52
2019-06-26T02:31:24.191Z,97852.11
2019-06-26T02:34:30.253Z,97846.89
2019-06-26T02:37:36.535Z,97849.78
2019-06-26T02:40:42.833Z,97847.55
2019-06-26T02:43:48.851Z,97846.95
2019-06-26T02:46:54.900Z,97844.21
2019-06-26T02:50:00.935Z,97846.59
2019-06-26T02:53:07.320Z,97843.89
2019-06-26T02:56:13.945Z,97848.76
2019-06-26T02:59:20.553Z,97841.24
2019-06-26T03:02:26.860Z,97839.53
2019-06-26T03:05:33.252Z,97839.31
2019-06-26T03:08:39.882Z,97840.28
2019-06-26T03:11:46.314Z,97836.70
2019-06-26T03:15:07.755Z,97835.58
2019-06-26T03:18:00.643Z,97844.14
2019-06-26T03:21:06.691Z,97843.20
2019-06-26T03:24:13.086Z,97842.03
2019-06-26T03:27:19.452Z,97839.56
2019-06-26T03:30:26.116Z,97841.77
2019-06-26T03:33:32.504Z,97840.46
2019-06-26T03:36:39.113Z,97838.31
2019-06-26T03:39:47.635Z,97839.80
2019-06-26T03:42:53.962Z,97842.19
2019-06-26T03:46:00.332Z,97840.14
2019-06-26T03:49:07.192Z,97838.66
2019-06-26T03:52:13.214Z,97839.78
2019-06-26T03:55:20.768Z,97855.04
2019-06-26T03:58:27.710Z,97848.28
2019-06-26T04:01:34.038Z,97844.84
2019-06-26T04:04:40.396Z,97848.26
2019-06-26T04:07:46.427Z,97845.53
2019-06-26T04:10:52.721Z,97853.81
2019-06-26T04:13:58.785Z,97857.23
2019-06-26T04:17:05.065Z,97850.13
2019-06-26T04:20:11.553Z,97853.22
2019-06-26T04:23:17.859Z,97852.99
2019-06-26T04:26:24.199Z,97850.78
2019-06-26T04:29:30.517Z,97853.91
2019-06-26T04:32:36.563Z,97858.95
2019-06-26T04:35:42.573Z,97857.69
2019-06-26T04:38:49.689Z,97859.48
2019-06-26T04:41:56.195Z,97854.72
2019-06-26T04:45:02.288Z,97854.30
2019-06-26T04:48:08.358Z,97856.43
2019-06-26T04:51:14.443Z,97858.91
2019-06-26T04:54:20.469Z,97857.61
2019-06-26T04:57:26.512Z,97861.66
2019-06-26T05:00:32.546Z,97865.69
2019-06-26T05:03:38.605Z,97858.90
2019-06-26T05:06:44.643Z,97868.25
2019-06-26T05:09:50.734Z,97863.60
2019-06-26T05:12:56.864Z,97862.55
2019-06-26T05:16:14.463Z,97860.91
2019-06-26T05:19:11.927Z,97859.16
2019-06-26T05:22:18.497Z,97863.47
2019-06-26T05:25:24.512Z,97860.65
2019-06-26T05:28:30.566Z,97869.10
2019-06-26T05:31:36.731Z,97871.63
2019-06-26T05:34:42.761Z,97866.55
2019-06-26T05:37:48.773Z,97867.34
2019-06-26T05:40:54.873Z,97868.30
2019-06-26T05:44:02.034Z,97875.64
2019-06-26T05:47:08.182Z,97882.42
2019-06-26T05:50:15.964Z,97881.28
2019-06-26T05:53:21.997Z,97880.34
2019-06-26T05:56:28.187Z,97886.30
2019-06-26T05:59:34.248Z,97879.76
2019-06-26T06:02:40.564Z,97883.97
2019-06-26T06:05:46.619Z,97880.58
2019-06-26T06:08:53.219Z,97886.70
2019-06-26T06:11:59.243Z,97889.33
2019-06-26T06:15:06.298Z,97894.73
2019-06-26T06:18:12.369Z,97890.31
2019-06-26T06:21:18.433Z,97897.14
2019-06-26T06:24:24.445Z,97894.60
2019-06-26T06:27:30.541Z,97899.30
2019-06-26T06:30:36.651Z,97901.00
2019-06-26T06:33:43.721Z,97901.09
2019-06-26T06:36:49.772Z,97908.28
2019-06-26T06:39:55.829Z,97909.58
2019-06-26T06:43:01.911Z,97911.02
2019-06-26T06:46:08.148Z,97913.73
2019-06-26T06:49:14.188Z,97914.15
2019-06-26T06:52:21.984Z,97916.26
2019-06-26T06:55:28.378Z,97921.38
2019-06-26T06:58:34.587Z,97923.19
2019-06-26T07:01:40.642Z,97923.22
2019-06-26T07:04:46.732Z,97921.58
2019-06-26T07:07:55.626Z,97923.20
2019-06-26T07:11:01.739Z,97926.99
2019-06-26T07:14:07.897Z,97925.70
2019-06-26T07:17:20.561Z,97933.38
2019-06-26T07:20:22.406Z,97936.03
2019-06-26T07:23:28.454Z,97944.41
2019-06-26T07:26:34.686Z,97946.25
2019-06-26T07:29:40.710Z,97948.41
2019-06-26T07:32:46.809Z,97944.00
2019-06-26T07:35:52.874Z,97950.61
2019-06-26T07:38:58.995Z,97948.52
2019-06-26T07:42:05.107Z,97951.45
2019-06-26T07:45:11.709Z,97952.70
2019-06-26T07:48:17.995Z,97952.55
2019-06-26T07:51:24.192Z,97956.45
2019-06-26T07:54:30.202Z,97958.56
2019-06-26T07:57:36.279Z,97958.94
2019-06-26T08:00:42.299Z,97957.13
2019-06-26T08:03:49.957Z,97962.35
2019-06-26T08:06:56.224Z,97965.48
2019-06-26T08:10:02.399Z,97966.87
2019-06-26T08:13:08.460Z,97967.94
2019-06-26T08:16:14.577Z,97968.33
2019-06-26T08:19:20.697Z,97965.33
2019-06-26T08:22:28.118Z,97974.10
2019-06-26T08:25:34.466Z,97968.83
2019-06-26T08:28:40.507Z,97969.20
2019-06-26T08:31:46.518Z,97966.72
2019-06-26T08:34:52.783Z,97970.36
2019-06-26T08:38:09.888Z,97969.03
2019-06-26T08:41:06.753Z,97962.74
2019-06-26T08:44:13.783Z,97963.06
2019-06-26T08:47:20.438Z,97959.72
2019-06-26T08:50:26.734Z,97958.89
2019-06-26T08:53:32.906Z,97959.02
2019-06-26T08:56:38.922Z,97964.88
2019-06-26T08:59:45.042Z,97966.33
2019-06-26T09:02:51.065Z,97969.19
2019-06-26T09:05:57.261Z,97973.98
2019-06-26T09:09:04.579Z,97975.63
2019-06-26T09:12:10.767Z,97969.50
2019-06-26T09:15:16.929Z,97967.48
2019-06-26T09:18:34.815Z,97977.15
2019-06-26T09:21:31.444Z,97969.21
2019-06-26T09:24:38.664Z,97977.72
2019-06-26T09:27:44.740Z,97973.09
2019-06-26T09:30:50.771Z,97974.73
2019-06-26T09:33:56.845Z,97968.13
2019-06-26T09:37:02.901Z,97971.55
2019-06-26T09:40:10.474Z,97975.15
2019-06-26T09:43:16.511Z,97973.58
2019-06-26T09:46:22.648Z,97969.97
2019-06-26T09:49:28.810Z,97965.86
2019-06-26T09:52:35.097Z,97968.51
2019-06-26T09:55:41.487Z,97973.52
2019-06-26T09:58:47.515Z,97973.25
2019-06-26T10:01:53.636Z,97970.03
2019-06-26T10:05:02.945Z,97965.36
2019-06-26T10:08:09.018Z,97966.47
2019-06-26T10:11:15.114Z,97975.58
2019-06-26T10:14:21.148Z,97967.47
2019-06-26T10:17:27.161Z,97965.04
2019-06-26T10:20:33.337Z,97965.41
2019-06-26T10:23:39.351Z,97975.69
2019-06-26T10:26:45.478Z,97961.77
2019-06-26T10:29:51.597Z,97957.92
2019-06-26T10:32:57.640Z,97956.70
2019-06-26T10:36:03.735Z,97952.55
2019-06-26T10:39:10.544Z,97959.00
2019-06-26T10:42:16.638Z,97957.75
2019-06-26T10:45:23.313Z,97952.97
2019-06-26T10:48:29.435Z,97965.37
2019-06-26T10:51:35.538Z,97931.52
2019-06-26T10:54:44.540Z,97949.53
2019-06-26T10:57:50.646Z,97945.94
2019-06-26T11:00:56.660Z,97943.39
2019-06-26T11:04:03.274Z,97937.69
2019-06-26T11:07:09.388Z,97944.61
2019-06-26T11:10:17.786Z,97940.48
2019-06-26T11:13:23.801Z,97926.72
2019-06-26T11:16:31.632Z,97934.53
2019-06-26T11:19:43.739Z,97930.80
2019-06-26T11:22:45.948Z,97926.83
2019-06-26T11:25:52.120Z,97917.22
2019-06-26T11:28:58.630Z,97913.86
2019-06-26T11:32:05.053Z,97919.34
2019-06-26T11:35:11.283Z,97911.95
2019-06-26T11:38:17.295Z,97909.44
2019-06-26T11:41:23.334Z,97900.02
2019-06-26T11:44:29.342Z,97907.45
2019-06-26T11:47:35.456Z,97906.52
2019-06-26T11:50:41.490Z,97900.28
2019-06-26T11:53:47.524Z,97901.00
2019-06-26T11:56:55.122Z,97900.80
2019-06-26T12:00:01.744Z,97897.44
2019-06-26T12:03:08.977Z,97892.62
2019-06-26T12:06:18.830Z,97892.50
2019-06-26T12:09:22.733Z,97903.28
2019-06-26T12:12:28.787Z,97894.69
2019-06-26T12:15:34.800Z,97895.98
2019-06-26T12:18:40.934Z,97890.09
2019-06-26T12:21:46.930Z,97882.86
2019-06-26T12:24:53.533Z,97876.92
2019-06-26T12:27:59.549Z,97880.57
2019-06-26T12:31:06.139Z,97880.00
2019-06-26T12:34:12.269Z,97881.66
2019-06-26T12:37:18.510Z,97881.31
2019-06-26T12:40:26.326Z,97872.55
2019-06-26T12:43:33.332Z,97872.05
2019-06-26T12:46:39.388Z,97866.80
2019-06-26T12:49:45.485Z,97863.22
2019-06-26T12:52:51.636Z,97864.83
2019-06-26T12:55:57.710Z,97864.75
2019-06-26T12:59:05.002Z,97873.32
2019-06-26T13:02:11.684Z,97868.63
2019-06-26T13:05:18.023Z,97866.32
2019-06-26T13:08:24.062Z,97866.37
2019-06-26T13:11:30.089Z,97863.59
2019-06-26T13:14:36.144Z,97856.45
2019-06-26T13:17:42.493Z,97857.28
2019-06-26T13:20:53.191Z,97861.33
2019-06-26T13:23:56.307Z,97852.69
2019-06-26T13:27:02.409Z,97851.39
2019-06-26T13:30:08.788Z,97847.16
2019-06-26T13:33:14.897Z,97847.02
2019-06-26T13:36:20.915Z,97844.53
2019-06-26T13:39:27.036Z,97851.02
2019-06-26T13:42:33.270Z,97847.25
2019-06-26T13:45:40.273Z,97848.83
2019-06-26T13:48:46.373Z,97843.80
2019-06-26T13:51:53.004Z,97841.83
2019-06-26T13:54:59.013Z,97843.02
2019-06-26T13:58:05.225Z,97839.50
2019-06-26T14:01:11.617Z,97838.48
2019-06-26T14:04:17.656Z,97841.92
2019-06-26T14:07:23.688Z,97841.31
2019-06-26T14:10:29.726Z,97839.30
2019-06-26T14:13:41.544Z,97840.59
2019-06-26T14:16:46.738Z,97834.28
2019-06-26T14:19:52.749Z,97830.99
2019-06-26T14:22:58.831Z,97827.92
2019-06-26T14:26:05.017Z,97825.50
2019-06-26T14:29:20.340Z,97830.69
2019-06-26T14:32:18.795Z,97829.59
2019-06-26T14:35:25.081Z,97826.97
2019-06-26T14:38:31.097Z,97832.66
2019-06-26T14:41:39.217Z,97833.20
2019-06-26T14:44:45.245Z,97825.88
2019-06-26T14:47:51.299Z,97833.30
2019-06-26T14:50:57.316Z,97835.58
2019-06-26T14:54:03.688Z,97826.42
2019-06-26T14:57:09.700Z,97831.58
2019-06-26T15:00:17.301Z,97829.25
2019-06-26T15:03:23.713Z,97822.28
2019-06-26T15:06:30.838Z,97824.67
2019-06-26T15:09:36.858Z,97824.03
2019-06-26T15:12:43.277Z,97819.15
2019-06-26T15:15:49.387Z,97815.64
2019-06-26T15:18:55.423Z,97816.38
2019-06-26T15:22:01.650Z,97814.42
2019-06-26T15:25:08.272Z,97806.24
2019-06-26T15:28:14.317Z,97813.37
2019-06-26T15:31:20.376Z,97812.59
2019-06-26T15:34:26.450Z,97808.73
2019-06-26T15:37:32.479Z,97804.88
2019-06-26T15:40:38.506Z,97802.94
2019-06-26T15:43:44.768Z,97794.86
2019-06-26T15:46:50.817Z,97795.72
2019-06-26T15:49:56.878Z,97792.05
2019-06-26T15:53:02.983Z,97787.04
2019-06-26T15:56:09.043Z,97781.02
2019-06-26T15:59:15.066Z,97779.22
2019-06-26T16:02:21.125Z,97778.47
2019-06-26T16:05:27.368Z,97781.84
2019-06-26T16:08:33.652Z,97782.59
2019-06-26T16:11:39.670Z,97789.81
2019-06-26T16:14:45.789Z,97779.62
2019-06-26T16:17:58.090Z,97779.83
2019-06-26T16:21:04.377Z,97781.34
2019-06-26T16:24:10.991Z,97781.06
2019-06-26T16:27:17.114Z,97776.29
2019-06-26T16:30:24.792Z,97783.44
2019-06-26T16:33:30.850Z,97777.51
2019-06-26T16:36:36.880Z,97773.55
2019-06-26T16:39:44.608Z,97774.67
2019-06-26T16:42:50.675Z,97774.69
2019-06-26T16:45:56.742Z,97771.31
2019-06-26T16:49:02.801Z,97775.75
2019-06-26T16:52:09.061Z,97773.47
2019-06-26T16:55:15.349Z,97774.03
2019-06-26T16:58:21.829Z,97774.46
2019-06-26T17:01:27.857Z,97778.95
2019-06-26T17:04:33.907Z,97778.33
2019-06-26T17:07:40.897Z,97773.55
2019-06-26T17:10:47.390Z,97779.91
2019-06-26T17:13:53.414Z,97783.05
2019-06-26T17:16:59.975Z,97788.80
2019-06-26T17:20:06.900Z,97790.67
2019-06-26T17:23:13.004Z,97793.10
2019-06-26T17:26:19.031Z,97794.53
2019-06-26T17:29:25.288Z,97795.31
2019-06-26T17:32:31.306Z,97801.45
2019-06-26T17:35:37.375Z,97800.98
2019-06-26T17:38:43.495Z,97797.41
2019-06-26T17:41:49.598Z,97797.52
2019-06-26T17:44:55.619Z,97798.19
2019-06-26T17:48:01.735Z,97790.59
2019-06-26T17:51:07.766Z,97789.37
2019-06-26T17:54:13.813Z,97790.08
2019-06-26T17:57:19.953Z,97793.45
2019-06-26T18:00:31.672Z,97793.45
2019-06-26T18:03:37.764Z,97791.95
2019-06-26T18:06:43.906Z,97792.88
2019-06-26T18:09:50.109Z,97785.69
2019-06-26T18:12:56.215Z,97791.19
2019-06-26T18:16:02.864Z,97787.84
2019-06-26T18:19:09.272Z,97792.81
2019-06-26T18:22:15.522Z,97794.48
2019-06-26T18:25:21.918Z,97793.20
2019-06-26T18:28:27.976Z,97794.73
2019-06-26T18:31:34.026Z,97800.27
2019-06-26T18:34:40.371Z,97802.27
2019-06-26T18:37:46.422Z,97798.19
2019-06-26T18:40:52.444Z,97798.17
2019-06-26T18:43:59.562Z,97800.19
2019-06-26T18:47:05.663Z,97800.63
2019-06-26T18:50:12.095Z,97799.79
2019-06-26T18:53:18.197Z,97797.68
2019-06-26T18:56:24.218Z,97796.11
2019-06-26T18:59:30.355Z,97794.83
2019-06-26T19:02:36.548Z,97801.05
2019-06-26T19:05:43.103Z,97802.01
2019-06-26T19:08:49.239Z,97798.20
2019-06-26T19:11:55.867Z,97800.94
2019-06-26T19:15:01.931Z,97799.30
2019-06-26T19:18:08.120Z,97811.09
2019-06-26T19:21:14.189Z,97808.81
2019-06-26T19:24:20.287Z,97823.79
2019-06-26T19:27:26.332Z,97821.84
2019-06-26T19:30:35.173Z,97825.84
2019-06-26T19:33:45.553Z,97826.23
2019-06-26T19:36:50.833Z,97834.32
2019-06-26T19:39:57.353Z,97836.66
2019-06-26T19:43:03.539Z,97837.27
2019-06-26T19:46:09.646Z,97849.71
2019-06-26T19:49:15.679Z,97853.91
2019-06-26T19:52:21.859Z,97862.72
2019-06-26T19:55:28.060Z,97867.16
2019-06-26T19:58:34.110Z,97873.09
2019-06-26T20:01:40.136Z,97873.17
2019-06-26T20:04:48.392Z,97874.70
2019-06-26T20:07:53.922Z,97880.20
2019-06-26T20:11:00.074Z,97873.23
2019-06-26T20:14:06.471Z,97876.56
2019-06-26T20:17:12.521Z,97877.81
2019-06-26T20:20:19.221Z,97885.36
2019-06-26T20:23:26.185Z,97889.09
2019-06-26T20:26:32.446Z,97887.48
2019-06-26T20:29:38.701Z,97888.50
2019-06-26T20:32:45.078Z,97889.03
2019-06-26T20:35:51.154Z,97895.27
2019-06-26T20:38:57.203Z,97895.30
2019-06-26T20:42:03.465Z,97899.70
2019-06-26T20:45:11.194Z,97904.06
2019-06-26T20:48:17.670Z,97907.55
2019-06-26T20:51:23.723Z,97905.33
2019-06-26T20:54:29.830Z,97910.00
2019-06-26T20:57:35.887Z,97911.95
2019-06-26T21:00:42.134Z,97906.00
2019-06-26T21:03:48.166Z,97910.05
2019-06-26T21:06:54.246Z,97910.09
2019-06-26T21:10:00.738Z,97916.60
2019-06-26T21:13:06.793Z,97927.38
2019-06-26T21:16:13.242Z,97929.50
2019-06-26T21:19:19.789Z,97925.88
2019-06-26T21:22:25.814Z,97931.32
2019-06-26T21:25:32.817Z,97936.70
2019-06-26T21:28:39.330Z,97929.65
2019-06-26T21:31:45.382Z,97933.70
2019-06-26T21:34:51.416Z,97940.50
2019-06-26T21:37:59.050Z,97938.16
2019-06-26T21:41:05.113Z,97945.20
2019-06-26T21:44:11.516Z,97950.81
2019-06-26T21:47:17.558Z,97956.80
2019-06-26T21:50:23.642Z,97955.88
2019-06-26T21:53:29.848Z,97959.05
2019-06-26T21:56:53.938Z,97957.70
2019-06-26T22:00:18.768Z,97957.34
2019-06-26T22:03:42.416Z,97964.73
2019-06-26T22:06:53.243Z,97972.81
2019-06-26T22:10:04.373Z,97974.16
2019-06-26T22:13:12.088Z,97979.81
2019-06-26T22:16:19.486Z,97977.00
2019-06-26T22:19:25.740Z,97978.69
2019-06-26T22:22:32.090Z,97986.64
2019-06-26T22:25:50.217Z,97986.75
2019-06-26T22:28:45.943Z,97984.52
2019-06-26T22:31:52.054Z,97991.77
2019-06-26T22:34:58.236Z,97993.75
2019-06-26T22:38:04.478Z,97990.80
2019-06-26T22:41:10.629Z,97994.16
2019-06-26T22:44:16.672Z,97994.29
2019-06-26T22:47:22.916Z,98003.94
2019-06-26T22:50:29.328Z,98003.47
2019-06-26T22:53:35.404Z,98003.09
2019-06-26T22:56:41.551Z,98008.95
2019-06-26T22:59:47.742Z,98012.00
2019-06-26T23:02:55.494Z,98013.17
2019-06-26T23:06:01.533Z,98009.67
2019-06-26T23:09:08.703Z,98012.20
2019-06-26T23:12:14.836Z,98009.82
2019-06-26T23:15:21.070Z,98010.25
2019-06-26T23:18:27.590Z,98006.83
2019-06-26T23:21:33.615Z,98010.25
2019-06-26T23:24:39.701Z,98014.23
2019-06-26T23:27:45.925Z,98014.20
2019-06-26T23:30:52.093Z,98008.14
2019-06-26T23:33:58.157Z,98010.72
2019-06-26T23:37:04.504Z,98011.54
2019-06-26T23:40:11.754Z,98017.23
2019-06-26T23:43:17.806Z,98009.95
2019-06-26T23:46:23.921Z,98007.13
2019-06-26T23:49:30.030Z,98008.67
2019-06-26T23:52:36.060Z,98010.19
2019-06-26T23:55:42.236Z,98008.86
2019-06-26T23:58:48.378Z,98011.80
